Terminal Aerodrome Forecast
Issued by NWS

Home | Current Version | Previous Version | Text Only | Print | Product List | Glossary On
Versions: 1 2 3 4 5 6 7 8 9 10 11 12 13 14 15 16 17 18 19 20 21
000
FTUS46 KLOX 271740
TAFBUR
TAF
KBUR 271740Z 2718/2818 17006KT P6SM BKN035
     FM272000 19010KT P6SM SCT040
     FM280200 16006KT P6SM SKC
     FM280500 VRB03KT P6SM SKC
     FM281200 VRB03KT P6SM BKN008
     FM281600 VRB03KT P6SM SCT010=

USA.gov is the U.S. government's official web portal to all federal, state and local government web resources and services.